createdAt,value
2023-03-04T00:00:46.518Z,22.75
2023-03-04T00:03:32.472Z,23.27
2023-03-04T00:06:18.517Z,22.95
2023-03-04T00:09:04.817Z,20.70
2023-03-04T00:11:51.836Z,28.00
2023-03-04T00:14:37.555Z,22.63
2023-03-04T00:17:24.157Z,24.70
2023-03-04T00:20:10.833Z,24.40
2023-03-04T00:22:56.904Z,22.60
2023-03-04T00:25:43.643Z,26.10
2023-03-04T00:28:29.790Z,24.98
2023-03-04T00:31:15.594Z,23.95
2023-03-04T00:34:01.278Z,28.42
2023-03-04T00:36:47.018Z,25.60
2023-03-04T00:39:32.814Z,22.65
2023-03-04T00:42:19.079Z,21.40
2023-03-04T00:45:06.279Z,24.23
2023-03-04T00:47:52.209Z,27.17
2023-03-04T00:50:38.472Z,24.45
2023-03-04T00:53:24.137Z,25.17
2023-03-04T00:56:11.877Z,23.30
2023-03-04T00:58:57.583Z,21.83
2023-03-04T01:01:44.553Z,21.80
2023-03-04T01:04:30.289Z,23.17
2023-03-04T01:07:16.322Z,20.00
2023-03-04T01:10:05.972Z,20.50
2023-03-04T01:12:52.740Z,28.52
2023-03-04T01:15:43.023Z,25.70
2023-03-04T01:18:28.978Z,22.88
2023-03-04T01:21:21.557Z,22.42
2023-03-04T01:24:07.537Z,24.92
2023-03-04T01:26:54.534Z,23.77
2023-03-04T01:29:41.065Z,26.20
2023-03-04T01:32:41.378Z,27.98
2023-03-04T01:35:27.496Z,27.08
2023-03-04T01:38:13.438Z,29.42
2023-03-04T01:40:59.405Z,27.27
2023-03-04T01:43:45.377Z,42.08
2023-03-04T01:46:31.787Z,38.25
2023-03-04T01:49:17.883Z,35.38
2023-03-04T01:52:04.044Z,29.75
2023-03-04T01:54:50.936Z,33.13
2023-03-04T01:57:36.844Z,33.53
2023-03-04T02:00:31.942Z,30.75
2023-03-04T02:03:22.328Z,28.98
2023-03-04T02:06:08.367Z,31.17
2023-03-04T02:08:54.289Z,25.98
2023-03-04T02:11:41.242Z,26.02
2023-03-04T02:14:27.111Z,24.95
2023-03-04T02:17:13.556Z,25.50
2023-03-04T02:20:16.102Z,30.60
2023-03-04T02:23:12.925Z,29.15
2023-03-04T02:26:26.758Z,25.17
2023-03-04T02:29:15.381Z,29.95
2023-03-04T02:32:01.625Z,36.70
2023-03-04T02:34:49.444Z,50.03
2023-03-04T02:37:35.454Z,45.05
2023-03-04T02:40:26.646Z,41.17
2023-03-04T02:43:12.947Z,39.90
2023-03-04T02:45:58.708Z,32.42
2023-03-04T02:48:45.764Z,29.50
2023-03-04T02:51:31.670Z,28.42
2023-03-04T02:54:21.388Z,28.85
2023-03-04T02:57:10.323Z,27.05
2023-03-04T02:59:58.789Z,25.83
2023-03-04T03:02:46.965Z,24.73
2023-03-04T03:05:36.572Z,30.10
2023-03-04T03:08:23.098Z,24.73
2023-03-04T03:11:09.546Z,25.35
2023-03-04T03:13:56.643Z,28.05
2023-03-04T03:16:43.848Z,22.75
2023-03-04T03:19:30.303Z,23.90
2023-03-04T03:22:16.207Z,28.15
2023-03-04T03:25:01.916Z,25.40
2023-03-04T03:27:47.991Z,24.60
2023-03-04T03:30:35.603Z,24.98
2023-03-04T03:33:24.419Z,27.08
2023-03-04T03:36:11.492Z,27.30
2023-03-04T03:38:57.418Z,24.48
2023-03-04T03:41:43.372Z,27.73
2023-03-04T03:44:29.422Z,23.10
2023-03-04T03:47:19.742Z,20.88
2023-03-04T03:52:54.862Z,23.27
2023-03-04T03:55:40.959Z,25.35
2023-03-04T03:58:27.105Z,23.85
2023-03-04T04:01:12.862Z,24.65
2023-03-04T04:03:58.685Z,22.33
2023-03-04T04:06:44.777Z,25.42
2023-03-04T04:09:30.749Z,32.70
2023-03-04T04:12:17.057Z,20.27
2023-03-04T04:15:03.087Z,27.00
2023-03-04T04:17:52.253Z,22.00
2023-03-04T04:20:38.987Z,18.05
2023-03-04T04:23:24.801Z,18.90
2023-03-04T04:26:10.441Z,11.88
2023-03-04T04:28:56.150Z,15.60
2023-03-04T04:31:42.090Z,15.18
2023-03-04T04:34:28.114Z,12.95
2023-03-04T04:37:13.762Z,13.73
2023-03-04T04:39:59.479Z,15.32
2023-03-04T04:42:47.788Z,15.70
2023-03-04T04:45:34.341Z,14.50
2023-03-04T04:48:20.367Z,12.18
2023-03-04T04:51:06.335Z,12.18
2023-03-04T04:53:52.091Z,12.82
2023-03-04T04:56:37.772Z,21.33
2023-03-04T04:59:23.485Z,14.43
2023-03-04T05:02:09.195Z,12.27
2023-03-04T05:04:55.151Z,19.55
2023-03-04T05:07:41.849Z,22.17
2023-03-04T05:10:27.919Z,15.13
2023-03-04T05:13:13.670Z,18.65
2023-03-04T05:15:59.872Z,23.55
2023-03-04T05:18:46.150Z,31.30
2023-03-04T05:21:31.876Z,15.50
2023-03-04T05:24:17.546Z,18.05
2023-03-04T05:27:03.398Z,23.60
2023-03-04T05:29:49.251Z,25.13
2023-03-04T05:32:35.006Z,30.83
2023-03-04T05:35:20.615Z,46.20
2023-03-04T05:38:08.687Z,26.88
2023-03-04T05:40:59.477Z,21.23
2023-03-04T05:43:45.725Z,21.83
2023-03-04T05:46:40.086Z,16.60
2023-03-04T05:49:26.930Z,31.45
2023-03-04T05:52:12.820Z,20.10
2023-03-04T05:54:58.757Z,19.98
2023-03-04T05:57:44.750Z,16.67
2023-03-04T06:00:33.448Z,17.95
2023-03-04T06:03:21.655Z,20.92
2023-03-04T06:06:07.762Z,22.48
2023-03-04T06:08:55.771Z,23.67
2023-03-04T06:11:41.702Z,23.13
2023-03-04T06:14:27.800Z,18.50
2023-03-04T06:17:13.859Z,29.95
2023-03-04T06:20:06.464Z,17.90
2023-03-04T06:22:52.625Z,22.38
2023-03-04T06:25:39.341Z,19.95
2023-03-04T06:28:25.105Z,18.73
2023-03-04T06:31:12.209Z,22.48
2023-03-04T06:33:58.003Z,24.38
2023-03-04T06:36:43.823Z,29.15
2023-03-04T06:39:29.768Z,22.17
2023-03-04T06:42:15.592Z,22.73
2023-03-04T06:45:02.013Z,25.42
2023-03-04T06:47:48.092Z,17.75
2023-03-04T06:50:33.966Z,20.00
2023-03-04T06:53:19.784Z,19.75
2023-03-04T06:56:06.191Z,21.73
2023-03-04T06:58:52.444Z,26.70
2023-03-04T07:01:38.588Z,23.95
2023-03-04T07:04:24.856Z,29.40
2023-03-04T07:07:11.776Z,19.67
2023-03-04T07:09:57.543Z,31.10
2023-03-04T07:12:43.468Z,21.60
2023-03-04T07:15:29.904Z,24.67
2023-03-04T07:18:15.976Z,20.48
2023-03-04T07:21:01.924Z,19.90
2023-03-04T07:23:47.781Z,19.75
2023-03-04T07:26:33.556Z,20.25
2023-03-04T07:29:19.340Z,26.20
2023-03-04T07:32:09.502Z,28.75
2023-03-04T07:34:55.461Z,21.02
2023-03-04T07:37:41.202Z,25.05
2023-03-04T07:40:26.999Z,20.77
2023-03-04T07:43:13.462Z,30.63
2023-03-04T07:46:01.787Z,22.95
2023-03-04T07:48:47.688Z,24.52
2023-03-04T07:51:35.167Z,46.05
2023-03-04T07:54:21.727Z,23.42
2023-03-04T07:57:07.421Z,23.60
2023-03-04T07:59:53.181Z,29.25
2023-03-04T08:02:39.762Z,29.30
2023-03-04T08:05:25.800Z,27.63
2023-03-04T08:08:11.862Z,35.05
2023-03-04T08:10:58.161Z,28.25
2023-03-04T08:13:44.918Z,25.50
2023-03-04T08:16:31.019Z,25.30
2023-03-04T08:19:16.977Z,21.50
2023-03-04T08:22:03.415Z,23.35
2023-03-04T08:24:49.469Z,21.85
2023-03-04T08:27:37.280Z,23.73
2023-03-04T08:30:23.306Z,16.70
2023-03-04T08:33:10.378Z,32.03
2023-03-04T08:35:56.906Z,29.70
2023-03-04T08:38:43.198Z,33.60
2023-03-04T08:41:29.514Z,23.85
2023-03-04T08:44:15.866Z,26.15
2023-03-04T08:47:01.707Z,23.50
2023-03-04T08:49:47.422Z,28.48
2023-03-04T08:52:33.495Z,21.52
2023-03-04T08:55:20.357Z,20.30
2023-03-04T08:58:07.558Z,20.67
2023-03-04T09:00:53.173Z,20.85
2023-03-04T09:03:39.902Z,23.30
2023-03-04T09:06:26.068Z,25.75
2023-03-04T09:09:12.184Z,31.48
2023-03-04T09:11:57.897Z,30.30
2023-03-04T09:14:43.602Z,32.03
2023-03-04T09:17:29.500Z,45.67
2023-03-04T09:20:15.825Z,44.55
2023-03-04T09:23:02.975Z,48.30
2023-03-04T09:25:49.691Z,60.58
2023-03-04T09:28:35.690Z,167.38
2023-03-04T09:31:22.063Z,50.60
2023-03-04T09:34:08.205Z,46.55
2023-03-04T09:36:54.239Z,39.28
2023-03-04T09:39:40.228Z,44.05
2023-03-04T09:42:31.584Z,51.67
2023-03-04T09:45:23.662Z,35.17
2023-03-04T09:48:13.340Z,33.90
2023-03-04T09:51:23.610Z,33.92
2023-03-04T09:54:19.024Z,32.75
2023-03-04T09:57:40.122Z,36.33
2023-03-04T10:00:58.423Z,34.67
2023-03-04T10:03:52.322Z,37.10
2023-03-04T10:06:40.564Z,35.65
2023-03-04T10:09:56.193Z,42.63
2023-03-04T10:12:44.337Z,31.23
2023-03-04T10:15:44.195Z,28.02
2023-03-04T10:19:00.914Z,34.95
2023-03-04T10:21:48.898Z,32.47
2023-03-04T10:24:35.540Z,39.83
2023-03-04T10:27:21.486Z,38.70
2023-03-04T10:30:32.989Z,31.80
2023-03-04T10:33:24.388Z,39.15
2023-03-04T10:36:25.492Z,29.48
2023-03-04T10:39:19.006Z,29.90
2023-03-04T10:42:24.178Z,29.38
2023-03-04T10:45:22.303Z,34.15
2023-03-04T10:48:18.885Z,28.00
2023-03-04T10:51:16.890Z,30.42
2023-03-04T10:54:20.470Z,31.60
2023-03-04T10:57:16.763Z,40.00
2023-03-04T11:00:23.183Z,39.28
2023-03-04T11:03:37.253Z,35.75
2023-03-04T11:06:23.651Z,34.72
2023-03-04T11:09:22.470Z,32.80
2023-03-04T11:12:14.053Z,38.80
2023-03-04T11:15:02.181Z,35.75
2023-03-04T11:17:52.752Z,29.98
2023-03-04T11:20:48.519Z,44.60
2023-03-04T11:23:44.575Z,26.00
2023-03-04T11:26:48.736Z,23.80
2023-03-04T11:29:55.736Z,31.52
2023-03-04T11:32:46.286Z,24.40
2023-03-04T11:35:43.191Z,22.70
2023-03-04T11:38:33.598Z,35.30
2023-03-04T11:41:25.644Z,21.65
2023-03-04T11:44:14.417Z,45.03
2023-03-04T11:47:08.959Z,37.45
2023-03-04T11:50:07.044Z,20.67
2023-03-04T11:53:02.631Z,21.40
2023-03-04T11:56:37.315Z,32.55
2023-03-04T11:59:36.967Z,23.75
2023-03-04T12:02:32.511Z,27.52
2023-03-04T12:05:33.865Z,31.40
2023-03-04T12:08:22.859Z,29.83
2023-03-04T12:11:43.689Z,34.88
2023-03-04T12:14:51.233Z,33.72
2023-03-04T12:17:59.788Z,33.83
2023-03-04T12:20:55.949Z,22.73
2023-03-04T12:23:50.796Z,23.52
2023-03-04T12:26:55.590Z,31.48
2023-03-04T12:29:57.124Z,25.25
2023-03-04T12:32:51.974Z,31.10
2023-03-04T12:35:42.175Z,30.95
2023-03-04T12:38:50.932Z,28.75
2023-03-04T12:41:58.381Z,28.55
2023-03-04T12:45:20.786Z,30.60
2023-03-04T12:48:14.598Z,25.40
2023-03-04T12:51:35.551Z,29.25
2023-03-04T12:54:26.189Z,29.08
2023-03-04T12:57:21.641Z,23.58
2023-03-04T13:00:26.469Z,23.15
2023-03-04T13:03:35.596Z,25.17
2023-03-04T13:06:57.899Z,32.60
2023-03-04T13:10:01.924Z,27.88
2023-03-04T13:12:58.218Z,30.58
2023-03-04T13:15:44.112Z,32.78
2023-03-04T13:18:31.476Z,46.35
2023-03-04T13:21:24.004Z,93.30
2023-03-04T13:24:44.964Z,34.88
2023-03-04T13:27:51.402Z,54.92
2023-03-04T13:30:38.284Z,64.75
2023-03-04T13:33:24.075Z,31.05
2023-03-04T13:36:30.062Z,32.05
2023-03-04T13:39:15.985Z,33.65
2023-03-04T13:42:02.262Z,32.92
2023-03-04T13:44:47.944Z,34.58
2023-03-04T13:47:43.681Z,40.20
2023-03-04T13:50:36.491Z,42.53
2023-03-04T13:53:34.471Z,30.48
2023-03-04T13:56:32.013Z,34.40
2023-03-04T13:59:29.882Z,35.70
2023-03-04T14:02:19.051Z,33.40
2023-03-04T14:05:05.253Z,37.22
2023-03-04T14:07:51.331Z,38.90
2023-03-04T14:10:38.189Z,38.65
2023-03-04T14:13:24.755Z,29.95
2023-03-04T14:16:10.804Z,33.15
2023-03-04T14:19:02.011Z,30.38
2023-03-04T14:21:48.244Z,27.17
2023-03-04T14:24:34.115Z,33.70
2023-03-04T14:27:19.673Z,34.78
2023-03-04T14:30:31.911Z,29.17
2023-03-04T14:33:31.751Z,34.42
2023-03-04T14:36:20.470Z,43.67
2023-03-04T14:39:07.374Z,35.10
2023-03-04T14:41:56.233Z,34.45
2023-03-04T14:44:48.475Z,32.53
2023-03-04T14:47:39.035Z,28.77
2023-03-04T14:50:25.103Z,40.42
2023-03-04T14:53:15.715Z,35.28
2023-03-04T14:56:06.669Z,32.78
2023-03-04T14:58:54.985Z,38.70
2023-03-04T15:01:41.924Z,41.28
2023-03-04T15:04:28.044Z,39.55
2023-03-04T15:07:19.832Z,33.25
2023-03-04T15:10:09.403Z,28.52
2023-03-04T15:12:57.517Z,33.28
2023-03-04T15:15:45.380Z,33.00
2023-03-04T15:18:33.302Z,31.40
2023-03-04T15:21:30.077Z,31.20
2023-03-04T15:24:16.213Z,36.55
2023-03-04T15:27:07.734Z,43.58
2023-03-04T15:29:56.348Z,43.53
2023-03-04T15:32:42.478Z,53.42
2023-03-04T15:35:30.539Z,47.35
2023-03-04T15:38:16.805Z,48.65
2023-03-04T15:41:03.241Z,41.13
2023-03-04T15:43:50.266Z,41.90
2023-03-04T15:46:37.661Z,38.65
2023-03-04T15:49:23.820Z,41.00
2023-03-04T15:52:19.728Z,36.30
2023-03-04T15:55:07.637Z,41.28
2023-03-04T15:58:00.424Z,33.92
2023-03-04T16:00:46.178Z,31.33
2023-03-04T16:03:32.082Z,32.60
2023-03-04T16:06:23.975Z,38.67
2023-03-04T16:09:14.709Z,51.20
2023-03-04T16:12:02.138Z,49.72
2023-03-04T16:14:49.353Z,39.13
2023-03-04T16:17:35.363Z,71.13
2023-03-04T16:20:24.635Z,43.70
2023-03-04T16:23:13.721Z,51.25
2023-03-04T16:26:00.993Z,57.67
2023-03-04T16:28:46.849Z,57.58
2023-03-04T16:31:32.643Z,58.58
2023-03-04T16:34:18.616Z,61.47
2023-03-04T16:37:13.941Z,61.45
2023-03-04T16:40:00.205Z,63.17
2023-03-04T16:42:46.056Z,58.00
2023-03-04T16:45:32.636Z,50.72
2023-03-04T16:48:20.333Z,65.93
2023-03-04T16:51:15.291Z,67.65
2023-03-04T16:54:01.424Z,76.63
2023-03-04T16:56:48.454Z,70.28
2023-03-04T16:59:34.427Z,69.47
2023-03-04T17:02:22.380Z,69.95
2023-03-04T17:05:10.233Z,68.30
2023-03-04T17:07:56.330Z,81.07
2023-03-04T17:10:42.356Z,83.82
2023-03-04T17:13:29.235Z,80.50
2023-03-04T17:16:18.336Z,71.10
2023-03-04T17:19:04.480Z,80.28
2023-03-04T17:21:57.498Z,81.82
2023-03-04T17:24:43.163Z,69.63
2023-03-04T17:27:30.395Z,76.10
2023-03-04T17:30:16.583Z,72.82
2023-03-04T17:33:02.683Z,65.82
2023-03-04T17:35:48.796Z,64.45
2023-03-04T17:38:34.924Z,62.28
2023-03-04T17:41:21.695Z,70.15
2023-03-04T17:44:10.630Z,69.85
2023-03-04T17:46:57.624Z,72.03
2023-03-04T17:49:43.933Z,69.78
2023-03-04T17:52:29.666Z,64.57
2023-03-04T17:55:15.618Z,58.65
2023-03-04T17:58:01.569Z,65.25
2023-03-04T18:00:47.980Z,70.75
2023-03-04T18:03:34.054Z,76.05
2023-03-04T18:06:22.912Z,74.60
2023-03-04T18:09:09.530Z,72.03
2023-03-04T18:11:55.577Z,80.38
2023-03-04T18:14:41.680Z,62.58
2023-03-04T18:17:28.456Z,53.47
2023-03-04T18:20:15.090Z,58.97
2023-03-04T18:23:01.064Z,56.78
2023-03-04T18:25:47.371Z,50.95
2023-03-04T18:28:33.740Z,56.58
2023-03-04T18:31:26.176Z,66.28
2023-03-04T18:34:12.826Z,60.22
2023-03-04T18:36:58.783Z,57.58
2023-03-04T18:39:44.708Z,48.28
2023-03-04T18:42:31.675Z,47.50
2023-03-04T18:45:17.723Z,49.58
2023-03-04T18:48:04.827Z,55.20
2023-03-04T18:50:52.605Z,49.85
2023-03-04T18:53:40.459Z,51.72
2023-03-04T18:56:34.655Z,55.15
2023-03-04T18:59:22.467Z,58.85
2023-03-04T19:02:32.536Z,48.10
2023-03-04T19:05:26.700Z,49.95
2023-03-04T19:08:13.280Z,38.58
2023-03-04T19:11:00.296Z,45.20
2023-03-04T19:13:47.679Z,48.20
2023-03-04T19:16:33.720Z,47.70
2023-03-04T19:19:19.819Z,56.47
2023-03-04T19:22:06.946Z,65.25
2023-03-04T19:24:55.020Z,74.80
2023-03-04T19:27:41.004Z,55.53
2023-03-04T19:30:26.957Z,55.28
2023-03-04T19:33:12.776Z,46.78
2023-03-04T19:36:01.795Z,48.10
2023-03-04T19:38:47.632Z,46.00
2023-03-04T19:41:34.674Z,54.00
2023-03-04T19:44:21.382Z,59.70
2023-03-04T19:47:11.072Z,59.58
2023-03-04T19:49:57.481Z,51.25
2023-03-04T19:52:43.691Z,53.40
2023-03-04T19:55:29.597Z,47.88
2023-03-04T19:58:16.607Z,47.40
2023-03-04T20:01:02.481Z,49.40
2023-03-04T20:03:48.243Z,49.30
2023-03-04T20:06:37.083Z,48.95
2023-03-04T20:09:27.806Z,52.28
2023-03-04T20:12:14.022Z,52.22
2023-03-04T20:15:00.530Z,52.50
2023-03-04T20:17:46.754Z,50.90
2023-03-04T20:20:32.780Z,51.67
2023-03-04T20:23:20.570Z,51.58
2023-03-04T20:26:06.618Z,49.28
2023-03-04T20:28:52.633Z,45.05
2023-03-04T20:31:39.562Z,46.22
2023-03-04T20:34:27.229Z,50.42
2023-03-04T20:37:14.024Z,49.95
2023-03-04T20:40:00.080Z,52.72
2023-03-04T20:42:47.257Z,51.58
2023-03-04T20:45:33.986Z,49.25
2023-03-04T20:48:21.019Z,51.05
2023-03-04T20:51:06.687Z,56.50
2023-03-04T20:53:55.119Z,50.95
2023-03-04T20:56:41.439Z,52.78
2023-03-04T20:59:28.124Z,62.22
2023-03-04T21:02:15.999Z,59.78
2023-03-04T21:05:01.962Z,74.10
2023-03-04T21:07:47.995Z,63.70
2023-03-04T21:10:35.592Z,62.75
2023-03-04T21:13:23.505Z,65.28
2023-03-04T21:16:15.300Z,65.50
2023-03-04T21:19:01.351Z,56.40
2023-03-04T21:21:48.587Z,67.47
2023-03-04T21:24:36.265Z,56.97
2023-03-04T21:27:22.234Z,49.10
2023-03-04T21:30:14.627Z,56.70
2023-03-04T21:33:03.766Z,53.15
2023-03-04T21:35:51.325Z,51.70
2023-03-04T21:38:38.680Z,56.97
2023-03-04T21:41:25.784Z,48.95
2023-03-04T21:44:22.609Z,51.85
2023-03-04T21:47:16.976Z,52.88
2023-03-04T21:50:02.720Z,51.88
2023-03-04T21:52:49.087Z,51.40
2023-03-04T21:55:35.252Z,49.92
2023-03-04T21:58:21.173Z,74.75
2023-03-04T22:01:19.249Z,59.50
2023-03-04T22:04:05.697Z,46.85
2023-03-04T22:06:53.654Z,46.72
2023-03-04T22:09:39.880Z,47.03
2023-03-04T22:12:26.428Z,54.47
2023-03-04T22:15:12.696Z,63.50
2023-03-04T22:17:58.705Z,58.47
2023-03-04T22:20:48.191Z,53.00
2023-03-04T22:23:39.745Z,50.50
2023-03-04T22:26:31.919Z,59.95
2023-03-04T22:29:18.310Z,50.33
2023-03-04T22:32:04.582Z,46.17
2023-03-04T22:34:50.819Z,46.00
2023-03-04T22:37:37.378Z,45.30
2023-03-04T22:40:23.798Z,46.65
2023-03-04T22:43:10.584Z,52.75
2023-03-04T22:46:00.522Z,45.42
2023-03-04T22:48:47.930Z,57.92
2023-03-04T22:51:33.925Z,53.15
2023-03-04T22:54:20.717Z,48.80
2023-03-04T22:57:07.490Z,49.33
2023-03-04T22:59:53.938Z,49.28
2023-03-04T23:02:39.749Z,50.78
2023-03-04T23:05:25.809Z,54.53
2023-03-04T23:08:11.524Z,49.03
2023-03-04T23:10:57.603Z,50.92
2023-03-04T23:13:44.100Z,48.55
2023-03-04T23:16:33.467Z,42.47
2023-03-04T23:19:19.416Z,51.38
2023-03-04T23:22:05.262Z,50.22
2023-03-04T23:24:52.549Z,49.22
2023-03-04T23:27:39.653Z,53.47
2023-03-04T23:30:25.865Z,58.45
2023-03-04T23:33:11.911Z,52.65
2023-03-04T23:35:57.721Z,63.30
2023-03-04T23:38:45.475Z,47.92
2023-03-04T23:41:32.978Z,44.42
2023-03-04T23:44:19.009Z,45.35
2023-03-04T23:47:04.926Z,51.78
2023-03-04T23:49:50.866Z,48.10
2023-03-04T23:52:36.729Z,46.60
2023-03-04T23:55:22.754Z,42.55
2023-03-04T23:58:08.430Z,49.60
